Detall de PIREP

Printer-friendly versionPDF version

[2016/10/23 07:59:00]
Flight IATA:CT3409
Pilot Number:012
Company ICAO:CAT
Aircraft Type:B463/A
PAX:0
Aircraft Registration:CARGO
Departing Airport: LSGG
Destination Airport: LEBL
Alternate Airport:LEPA
Online: VATSIM
Route:BALSI UY16 KURIR UY23 MTL UZ38 PPG UP84 ALBER
Flight Level:F290
No Slew and time accel
No pause
Crash detect
Detect pilot in Cockpit between each 30 and 45 minutes
07:59 Zero fuel Weight: 77802 Lbs, Fuel Weight: 19162 Lbs
07:59 VATSIM:LSGG 230750Z 02002KT 330V050 5000 -RA FEW030 BKN055 OVC070 07/06 Q1012 BECMG NSW
07:59 VATSIM:LEBL 230730Z 33008KT 290V360 9999 FEW015 BKN035 17/15 Q1008 NOSIG
08:10 Parking Brakes off
08:15 Take-off
08:15 Take off Weight: 96501 Lbs
08:15 Wind: 002º @ 002 Knots Heading: 225º
08:15 POS N46º 14´ 13´´ E006º 06´ 27´´
08:15 Flaps:2 at 144 Knots
08:15 Gear Up: 140 Knots
08:15 Flaps:1 at 144 Knots
08:15 Flaps:0 at 145 Knots
08:28 TOC
08:28 Fuel Weight: 16560 Lb
08:30 Wind:267º@060 Knots Heading: 230º Ground Speed: 359 Knots Altitude 28884 ft
08:45 Wind:263º@061 Knots Heading: 215º Ground Speed: 383 Knots Altitude 28877 ft
08:55 TOD
08:55 Fuel Weight: 14005 Lb
09:00 Wind:247º@047 Knots Heading: 212º Ground Speed: 349 Knots Altitude 21243 ft
09:15 Wind:226º@014 Knots Heading: 229º Ground Speed: 236 Knots Altitude 6210 ft
09:16 Flaps:1 at 190 Knots
09:21 Flaps:2 at 155 Knots
09:22 Gear Down: 175 Knots
09:22 Flaps:3 at 173 Knots
09:23 Flaps:4 at 157 Knots
09:25 TouchDown:Rate -176 ft/min Speed: 132 Knots
09:25 VATSIM:LEBL 230900Z 35003KT 290V060 9000 FEW015 BKN022 17/15 Q1009 NOSIG
09:25 Land
09:25 Wind:321º@004 Knots
09:25 Heading: 246º
09:25 Flight Duration: 01:10
09:25 Landing Weight: 90274 Lbs
09:25 POS N41º 17´ 50´´ E002º 04´ 43´´
09:28 Parking brakes on
09:28 Block to Block Duration: 01:18
09:28 Final Fuel: 12363 Lbls
09:28 Spent Fuel: 6798 Lbls
09:28 Flight Length: 362 NM
09:28 TOD Land Length: 127 NM

Exportar CSV

Powered by Drupal - Modified by Danger4k